Time;durP1;ratioP1;P1;durP2;ratioP2;P2;SDS_P1;SDS_P2;PMS_P1;PMS_P2;Temp;Humidity;BMP_temperature;BMP_pressure;BME280_temperature;BME280_humidity;BME280_pressure;Samples;Min_cycle;Max_cycle;Signal;HPM_P1;HPM_P2
2021/11/23 00:00:17;;;;;;;6.80;4.00;;;;;;;2.43;80.66;100582.81;229698;1191;138273;-69
2021/11/23 00:05:43;;;;;;;7.90;4.10;;;;;;;2.39;80.67;100579.36;230050;1190;140048;-72
2021/11/23 00:10:49;;;;;;;8.70;4.90;;;;;;;2.44;80.63;100579.40;229788;1191;140482;-68
2021/11/23 00:15:53;;;;;;;9.70;4.40;;;;;;;2.48;80.74;100573.73;230297;1190;141811;-68
2021/11/23 00:20:57;;;;;;;7.10;5.60;;;;;;;2.52;80.76;100579.40;229873;1191;139975;-68
2021/11/23 00:26:02;;;;;;;10.90;5.20;;;;;;;2.53;80.40;100587.50;229881;1191;139691;-68
2021/11/23 00:31:06;;;;;;;8.20;6.00;;;;;;;2.57;80.54;100588.66;229402;1191;141037;-69
2021/11/23 00:36:11;;;;;;;6.40;4.10;;;;;;;2.58;80.65;100588.44;229225;1192;140088;-68
2021/11/23 00:41:17;;;;;;;8.70;3.90;;;;;;;2.54;80.57;100585.11;230570;1191;140184;-69
2021/11/23 00:46:22;;;;;;;8.60;4.00;;;;;;;2.48;80.11;100573.86;230586;1190;139554;-69
2021/11/23 00:51:51;;;;;;;5.90;4.40;;;;;;;2.46;79.99;100571.31;230754;1192;139530;-70
2021/11/23 00:56:58;;;;;;;4.80;3.70;;;;;;;2.36;79.75;100565.34;231048;1191;139727;-69
2021/11/23 01:02:03;;;;;;;5.10;4.20;;;;;;;2.23;79.82;100565.76;230665;1192;139041;-72
2021/11/23 01:07:08;;;;;;;9.10;4.80;;;;;;;2.11;79.61;100563.17;230910;1190;140243;-71
2021/11/23 01:12:40;;;;;;;5.80;4.10;;;;;;;2.06;79.53;100564.08;230452;1190;139979;-69
2021/11/23 01:18:34;;;;;;;;;;;;;;;;;;;;;
2021/11/23 01:23:39;;;;;;;3.70;2.90;;;;;;;1.93;80.20;100579.10;229572;1192;140475;-71
2021/11/23 01:28:44;;;;;;;4.40;3.00;;;;;;;1.94;80.25;100581.48;229498;1191;140750;-71
2021/11/23 01:34:37;;;;;;;;;;;;;;;;;;;;;
2021/11/23 01:39:42;;;;;;;5.10;4.50;;;;;;;2.07;80.53;100577.13;230410;1191;150023;-72
2021/11/23 01:44:47;;;;;;;9.80;6.00;;;;;;;2.12;80.56;100581.69;229378;1191;139904;-70
2021/11/23 01:49:52;;;;;;;76.30;44.30;;;;;;;2.18;80.46;100586.09;229372;1192;139769;-72
2021/11/23 01:54:56;;;;;;;8.40;5.20;;;;;;;2.24;80.40;100593.02;229727;1192;139668;-72
2021/11/23 02:00:01;;;;;;;7.40;5.00;;;;;;;2.22;80.39;100601.82;229897;1191;140003;-70
2021/11/23 02:05:05;;;;;;;10.20;6.50;;;;;;;2.13;80.02;100601.05;229797;1191;138468;-68
2021/11/23 02:10:11;;;;;;;7.00;3.90;;;;;;;2.01;79.88;100602.05;229892;1190;141075;-69
2021/11/23 02:15:16;;;;;;;3.50;3.20;;;;;;;1.90;79.66;100601.80;229033;1192;138753;-68
2021/11/23 02:20:23;;;;;;;6.70;6.00;;;;;;;1.78;79.70;100604.33;230123;1192;139541;-70
2021/11/23 02:25:29;;;;;;;5.70;4.70;;;;;;;1.62;79.71;100609.41;229572;1192;140142;-69
2021/11/23 02:30:46;;;;;;;4.50;4.00;;;;;;;1.52;79.80;100609.09;229955;1192;139086;-71
2021/11/23 02:35:53;;;;;;;6.10;4.40;;;;;;;1.45;79.72;100610.83;229907;1192;140491;-71
2021/11/23 02:40:57;;;;;;;8.20;4.50;;;;;;;1.39;80.03;100612.69;229750;1192;139330;-69
2021/11/23 02:46:02;;;;;;;6.70;4.60;;;;;;;1.33;79.96;100613.41;230353;1190;139502;-74
2021/11/23 02:51:14;;;;;;;7.00;6.10;;;;;;;1.28;79.99;100608.70;231088;1191;141873;-69
2021/11/23 02:56:21;;;;;;;4.20;3.80;;;;;;;1.27;80.02;100610.23;231191;1184;139397;-69
2021/11/23 03:01:28;;;;;;;4.30;2.30;;;;;;;1.21;79.80;100608.00;230832;1190;139406;-70
2021/11/23 03:06:32;;;;;;;;;;;;;;;1.13;79.76;100608.61;231173;1191;139844;-69
2021/11/23 03:12:16;;;;;;;9.30;4.80;;;;;;;1.10;79.97;100610.35;231238;1191;126187;-68
2021/11/23 03:17:21;;;;;;;4.80;4.30;;;;;;;1.04;79.81;100604.77;230766;1191;140483;-72
2021/11/23 03:22:25;;;;;;;5.90;4.80;;;;;;;0.90;79.43;100607.42;230528;1191;139119;-70
2021/11/23 03:27:29;;;;;;;5.30;4.00;;;;;;;0.82;79.71;100602.66;229811;1191;140063;-69
2021/11/23 03:32:33;;;;;;;5.50;3.60;;;;;;;0.82;79.92;100599.48;229162;1192;139977;-69
2021/11/23 03:37:38;;;;;;;4.60;4.20;;;;;;;0.77;80.02;100590.52;229236;1190;138729;-71
2021/11/23 03:42:43;;;;;;;5.10;4.70;;;;;;;0.71;80.02;100582.35;229547;1190;139466;-70
2021/11/23 03:47:49;;;;;;;8.10;5.10;;;;;;;0.63;79.96;100588.23;228826;1190;139676;-70
2021/11/23 03:52:54;;;;;;;14.90;8.60;;;;;;;0.64;80.36;100571.16;230255;1190;140398;-69
2021/11/23 03:58:01;;;;;;;10.60;9.20;;;;;;;0.68;80.70;100571.60;229464;1190;138896;-69
2021/11/23 04:03:05;;;;;;;7.10;4.80;;;;;;;0.70;80.87;100563.18;229859;1190;138666;-68
2021/11/23 04:08:09;;;;;;;8.20;5.30;;;;;;;0.71;80.65;100560.89;229504;1191;138472;-69
2021/11/23 04:13:13;;;;;;;7.30;5.30;;;;;;;0.75;80.69;100552.57;230680;1190;140022;-68
2021/11/23 04:18:18;;;;;;;9.20;6.20;;;;;;;0.78;81.10;100547.73;230410;1192;141039;-69
2021/11/23 04:23:22;;;;;;;12.00;6.60;;;;;;;0.80;81.08;100545.82;230441;1190;138561;-67
2021/11/23 04:28:26;;;;;;;10.40;6.90;;;;;;;0.80;81.18;100540.21;230323;1190;141866;-67
2021/11/23 04:33:31;;;;;;;7.70;5.30;;;;;;;0.80;80.81;100542.75;230372;1184;139617;-68
2021/11/23 04:38:35;;;;;;;10.20;5.20;;;;;;;0.85;80.76;100544.59;230657;1191;139007;-68
2021/11/23 04:43:40;;;;;;;9.70;7.40;;;;;;;0.88;80.86;100548.10;231199;1191;138836;-74
2021/11/23 04:48:46;;;;;;;7.10;6.40;;;;;;;0.94;80.91;100541.91;231250;1192;139552;-77
2021/11/23 04:53:51;;;;;;;8.60;6.90;;;;;;;0.98;81.00;100535.32;231137;1192;139064;-71
2021/11/23 04:58:57;;;;;;;10.10;7.00;;;;;;;1.00;80.75;100525.03;231282;1190;139359;-72
2021/11/23 05:04:04;;;;;;;9.00;5.90;;;;;;;1.03;80.47;100523.50;230516;1176;139438;-71
2021/11/23 05:09:10;;;;;;;11.30;7.20;;;;;;;1.05;80.48;100515.33;230900;1191;140832;-71
2021/11/23 05:14:15;;;;;;;10.90;6.70;;;;;;;1.01;80.45;100505.17;230139;1190;141834;-69
2021/11/23 05:19:20;;;;;;;9.00;6.50;;;;;;;0.94;80.18;100508.26;230779;1190;139811;-68
2021/11/23 05:24:24;;;;;;;13.60;5.70;;;;;;;0.97;80.07;100498.23;230665;1192;140377;-72
2021/11/23 05:29:28;;;;;;;10.80;5.80;;;;;;;0.95;80.52;100499.20;230288;1191;141220;-73
2021/11/23 05:34:33;;;;;;;7.80;6.00;;;;;;;0.90;80.20;100492.06;230021;1192;139953;-70
2021/11/23 05:39:37;;;;;;;6.90;4.60;;;;;;;0.85;80.22;100490.85;229660;1190;140362;-67
2021/11/23 05:44:42;;;;;;;11.90;5.30;;;;;;;0.86;80.27;100483.25;229325;1190;139858;-69
2021/11/23 05:49:47;;;;;;;4.80;4.30;;;;;;;0.85;80.33;100483.83;229275;1193;140121;-70
2021/11/23 05:55:03;;;;;;;7.40;5.80;;;;;;;0.82;80.17;100486.46;229826;1191;139397;-74
2021/11/23 06:00:14;;;;;;;8.90;4.20;;;;;;;0.80;80.07;100481.75;229712;1192;139603;-69
2021/11/23 06:05:19;;;;;;;7.30;4.80;;;;;;;0.82;80.08;100477.54;229343;1190;139576;-69
2021/11/23 06:10:24;;;;;;;9.40;5.10;;;;;;;0.86;79.98;100480.42;230764;1190;140501;-69
2021/11/23 06:15:30;;;;;;;6.00;4.00;;;;;;;0.87;80.14;100482.99;229393;1190;159370;-68
2021/11/23 06:20:34;;;;;;;6.50;3.80;;;;;;;0.88;80.00;100489.30;230133;1190;140518;-68
2021/11/23 06:25:43;;;;;;;8.80;4.70;;;;;;;0.95;79.91;100496.98;229760;1192;152507;-67
2021/11/23 06:30:48;;;;;;;6.70;3.70;;;;;;;1.03;79.66;100500.58;229967;1190;138854;-70
2021/11/23 06:35:53;;;;;;;6.50;3.70;;;;;;;1.06;79.94;100501.02;228844;1192;140329;-70
2021/11/23 06:40:56;;;;;;;7.50;3.40;;;;;;;1.09;80.02;100509.34;230367;1177;138954;-73
2021/11/23 06:46:01;;;;;;;5.10;4.10;;;;;;;1.12;79.70;100518.03;231289;1191;140231;-71
2021/11/23 06:51:04;;;;;;;4.40;2.80;;;;;;;1.22;79.39;100516.38;230533;1192;139206;-72
2021/11/23 06:56:08;;;;;;;4.20;3.00;;;;;;;1.30;79.65;100500.11;231291;1191;139805;-73
2021/11/23 07:01:16;;;;;;;5.70;2.90;;;;;;;1.36;79.68;100489.40;231209;1191;139271;-70
2021/11/23 07:06:44;;;;;;;4.00;3.10;;;;;;;1.41;79.48;100495.64;230772;1192;139515;-71
2021/11/23 07:11:54;;;;;;;4.40;2.60;;;;;;;1.50;79.12;100491.45;230366;1190;139074;-71
2021/11/23 07:17:02;;;;;;;4.10;2.40;;;;;;;1.58;79.17;100487.72;230455;1190;140060;-70
2021/11/23 07:22:30;;;;;;;3.90;2.90;;;;;;;1.65;79.24;100481.73;230719;1190;139447;-72
2021/11/23 07:28:17;;;;;;;5.20;2.40;;;;;;;1.70;78.99;100488.47;229846;1192;139335;-70
2021/11/23 07:33:30;;;;;;;31.60;6.00;;;;;;;1.79;78.84;100488.11;230021;1190;142799;-71
2021/11/23 07:38:38;;;;;;;3.90;3.00;;;;;;;1.79;78.66;100484.59;229920;1191;203605;-72
2021/11/23 07:43:45;;;;;;;3.70;3.00;;;;;;;1.83;78.62;100491.61;228968;1192;139861;-69
2021/11/23 07:48:49;;;;;;;4.30;2.80;;;;;;;1.86;78.50;100491.15;229641;1190;139508;-69
2021/11/23 07:53:56;;;;;;;4.50;3.10;;;;;;;1.91;78.84;100482.90;229220;1192;139916;-71
2021/11/23 07:59:00;;;;;;;3.00;2.20;;;;;;;1.95;78.75;100475.13;229656;1190;138686;-70
2021/11/23 08:04:05;;;;;;;3.60;2.90;;;;;;;2.01;78.52;100478.63;230113;1190;139331;-73
2021/11/23 08:09:10;;;;;;;5.40;2.80;;;;;;;2.02;78.15;100485.77;229604;1192;141067;-70
2021/11/23 08:14:14;;;;;;;3.60;2.90;;;;;;;2.01;78.49;100469.00;229085;1190;140053;-68
2021/11/23 08:19:19;;;;;;;11.50;3.10;;;;;;;2.06;78.29;100464.54;230318;1190;138956;-69
2021/11/23 08:24:27;;;;;;;3.40;2.60;;;;;;;2.10;78.24;100467.08;229681;1192;139260;-69
2021/11/23 08:29:32;;;;;;;7.90;4.70;;;;;;;2.16;78.63;100470.66;229067;1184;138835;-69
2021/11/23 08:34:36;;;;;;;6.40;3.60;;;;;;;2.24;78.72;100475.70;230487;1190;138925;-69
2021/11/23 08:39:41;;;;;;;4.40;3.10;;;;;;;2.33;78.79;100478.94;230518;1190;139407;-71
2021/11/23 08:44:49;;;;;;;8.60;3.80;;;;;;;2.30;78.62;100482.95;229257;1190;138675;-69
2021/11/23 08:49:56;;;;;;;10.60;5.00;;;;;;;2.32;78.59;100480.98;229733;1190;139859;-71
2021/11/23 08:55:00;;;;;;;7.00;3.90;;;;;;;2.34;78.88;100479.50;229893;1192;141074;-72
2021/11/23 09:05:22;;;;;;;4.00;3.60;;;;;;;2.31;79.16;100487.42;230937;1190;140563;-69
2021/11/23 09:10:29;;;;;;;12.60;5.80;;;;;;;2.39;79.12;100489.11;230774;1190;140250;-73
2021/11/23 09:15:35;;;;;;;6.70;3.60;;;;;;;2.37;79.21;100488.71;230293;1190;161552;-73
2021/11/23 09:20:40;;;;;;;8.90;4.40;;;;;;;2.36;79.42;100490.20;230877;1190;140342;-74
2021/11/23 09:25:45;;;;;;;6.10;5.10;;;;;;;2.38;79.52;100488.09;229709;1190;141377;-71
2021/11/23 09:30:53;;;;;;;6.90;3.60;;;;;;;2.37;79.19;100491.67;230547;1190;139770;-78
2021/11/23 09:35:58;;;;;;;9.00;6.40;;;;;;;2.38;79.40;100499.66;229656;1192;139984;-71
2021/11/23 09:41:04;;;;;;;7.30;5.70;;;;;;;2.40;79.60;100494.41;230131;1190;139771;-72
2021/11/23 09:46:09;;;;;;;10.10;6.70;;;;;;;2.41;79.52;100500.42;229278;1190;139625;-72
2021/11/23 09:51:17;;;;;;;9.20;7.90;;;;;;;2.48;79.97;100501.56;230049;1190;141024;-73
2021/11/23 09:56:21;;;;;;;11.10;9.60;;;;;;;2.53;79.86;100507.13;230317;1190;140272;-70
2021/11/23 10:01:54;;;;;;;12.10;8.10;;;;;;;2.53;80.22;100511.50;229188;1190;139546;-69
2021/11/23 10:07:00;;;;;;;12.00;6.50;;;;;;;2.57;80.15;100500.41;229731;1190;141830;-76
2021/11/23 10:12:16;;;;;;;9.80;6.80;;;;;;;2.55;80.05;100499.23;229046;1190;139229;-73
2021/11/23 10:17:49;;;;;;;13.30;9.70;;;;;;;2.57;80.25;100492.92;229342;1190;138552;-73
2021/11/23 10:23:13;;;;;;;11.10;8.30;;;;;;;2.60;80.48;100488.16;230080;1190;140257;-72
2021/11/23 10:28:18;;;;;;;11.80;8.60;;;;;;;2.61;80.74;100491.58;229161;1184;138637;-71
2021/11/23 10:33:23;;;;;;;10.80;8.10;;;;;;;2.65;80.51;100487.80;229875;1190;139377;-69
2021/11/23 10:38:50;;;;;;;15.30;9.80;;;;;;;2.71;80.76;100485.63;229166;1190;140496;-71
2021/11/23 10:43:55;;;;;;;16.30;11.30;;;;;;;2.73;80.79;100490.60;230519;1192;139202;-71
2021/11/23 10:49:02;;;;;;;15.40;11.60;;;;;;;2.76;80.87;100493.84;231321;1192;142508;-71
2021/11/23 10:54:18;;;;;;;13.50;11.10;;;;;;;2.84;80.78;100490.17;230878;1192;140130;-75
2021/11/23 10:59:26;;;;;;;16.70;11.50;;;;;;;2.89;80.90;100488.16;230790;1192;140029;-72
2021/11/23 11:04:36;;;;;;;19.00;12.50;;;;;;;2.92;80.92;100486.09;231017;1191;139698;-71
2021/11/23 11:09:42;;;;;;;20.70;13.00;;;;;;;3.00;80.95;100482.04;231139;1191;139980;-70
2021/11/23 11:14:50;;;;;;;10.60;8.20;;;;;;;3.07;80.98;100484.52;230403;1190;140487;-72
2021/11/23 11:19:56;;;;;;;13.50;10.40;;;;;;;3.06;80.90;100478.42;231025;1190;139269;-75
2021/11/23 11:25:23;;;;;;;;;;;;;;;;;;;;;
2021/11/23 11:30:37;;;;;;;17.50;11.70;;;;;;;3.08;80.97;100491.74;230599;1192;140448;-77
2021/11/23 11:36:06;;;;;;;15.20;11.50;;;;;;;3.16;81.29;100489.43;230570;1192;141645;-74
2021/11/23 11:41:52;;;;;;;;;;;;;;;3.18;81.21;100489.36;230009;1190;139451;-73
2021/11/23 11:47:01;;;;;;;18.20;12.70;;;;;;;3.16;81.10;100492.07;228212;1196;126105;-69
2021/11/23 11:52:08;;;;;;;16.50;11.90;;;;;;;3.15;81.39;100496.98;229567;1192;160992;-73
2021/11/23 11:57:40;;;;;;;22.50;15.70;;;;;;;3.18;81.51;100483.36;229302;1191;140894;-70
2021/11/23 12:02:45;;;;;;;16.90;11.00;;;;;;;3.24;81.58;100480.06;229329;1192;140136;-70
2021/11/23 12:07:53;;;;;;;20.50;14.90;;;;;;;3.25;81.62;100479.27;229951;1191;139408;-69
2021/11/23 12:13:23;;;;;;;17.50;13.50;;;;;;;3.26;81.60;100479.41;229114;1192;139670;-69
2021/11/23 12:18:46;;;;;;;20.40;13.70;;;;;;;3.31;81.82;100482.16;229075;1192;140434;-66
2021/11/23 12:24:02;;;;;;;20.00;14.50;;;;;;;3.30;81.95;100490.46;229381;1192;141067;-67
2021/11/23 12:29:12;;;;;;;20.80;13.70;;;;;;;3.29;82.14;100496.75;229654;1190;139904;-67
2021/11/23 12:34:31;;;;;;;23.30;13.40;;;;;;;3.32;81.92;100494.38;229649;1192;141443;-66
2021/11/23 12:39:39;;;;;;;22.60;17.00;;;;;;;3.37;82.12;100503.60;229550;1192;140657;-66
2021/11/23 12:44:48;;;;;;;16.20;12.60;;;;;;;3.38;82.26;100503.17;230321;1190;140808;-69
2021/11/23 12:49:59;;;;;;;19.30;14.60;;;;;;;3.35;82.30;100505.05;230664;1191;140636;-68
2021/11/23 12:55:14;;;;;;;24.30;15.80;;;;;;;3.41;82.15;100511.63;230002;1192;141535;-67
2021/11/23 13:00:19;;;;;;;21.80;15.40;;;;;;;3.46;82.21;100515.05;230395;1192;140471;-67
2021/11/23 13:05:33;;;;;;;16.70;10.30;;;;;;;3.46;82.41;100520.67;231004;1191;139722;-67
2021/11/23 13:10:45;;;;;;;23.40;16.00;;;;;;;3.48;82.22;100524.48;231155;1190;145876;-67
2021/11/23 13:15:53;;;;;;;23.90;14.50;;;;;;;3.57;82.29;100529.81;230218;1192;141480;-68
2021/11/23 13:21:01;;;;;;;25.20;15.90;;;;;;;3.63;82.30;100535.01;230333;1191;140578;-69
2021/11/23 13:26:29;;;;;;;25.60;17.90;;;;;;;3.65;82.53;100535.39;230704;1191;138980;-68
2021/11/23 13:31:41;;;;;;;31.40;17.10;;;;;;;3.67;82.40;100541.84;230679;1191;140934;-67
2021/11/23 13:36:49;;;;;;;24.00;16.10;;;;;;;3.72;82.31;100541.55;230792;1192;141216;-68
2021/11/23 13:41:57;;;;;;;25.70;17.00;;;;;;;3.71;82.34;100546.91;229530;1192;140461;-67
2021/11/23 13:47:03;;;;;;;;;;;;;;;3.69;82.60;100546.59;229127;1193;140149;-68
2021/11/23 13:52:26;;;;;;;25.10;16.80;;;;;;;3.65;82.55;100547.38;230053;1192;126540;-71
2021/11/23 13:57:34;;;;;;;32.10;19.30;;;;;;;3.65;82.62;100546.56;229160;1191;141166;-70
2021/11/23 14:03:13;;;;;;;28.20;18.00;;;;;;;3.66;83.03;100549.59;230063;1191;141996;-71
2021/11/23 14:08:33;;;;;;;26.10;16.70;;;;;;;3.67;82.81;100555.37;229889;1191;140524;-72
2021/11/23 14:13:38;;;;;;;25.10;16.00;;;;;;;3.70;82.95;100556.30;229518;1191;140551;-68
2021/11/23 14:18:44;;;;;;;19.90;15.50;;;;;;;3.70;83.00;100560.50;229802;1192;141303;-67
2021/11/23 14:23:49;;;;;;;30.30;17.30;;;;;;;3.71;83.03;100559.58;229637;1191;140315;-69
2021/11/23 14:28:58;;;;;;;27.20;15.90;;;;;;;3.71;83.06;100557.06;229818;1192;150014;-67
2021/11/23 14:34:06;;;;;;;31.10;17.90;;;;;;;3.72;82.96;100559.58;230292;1191;142108;-68
2021/11/23 14:39:13;;;;;;;24.50;18.40;;;;;;;3.73;83.13;100564.48;229456;1192;140267;-70
2021/11/23 14:44:19;;;;;;;28.40;17.80;;;;;;;3.71;83.28;100566.00;230127;1191;139667;-67
2021/11/23 14:49:23;;;;;;;27.10;17.40;;;;;;;3.71;83.15;100569.00;230502;1192;139868;-68
2021/11/23 14:54:59;;;;;;;31.10;18.30;;;;;;;3.75;82.96;100573.02;230995;1191;140674;-67
2021/11/23 15:00:07;;;;;;;30.60;19.50;;;;;;;3.80;83.19;100574.29;229705;1176;142227;-69
2021/11/23 15:05:11;;;;;;;30.90;21.10;;;;;;;3.82;83.34;100576.00;231107;1191;139393;-72
2021/11/23 15:10:16;;;;;;;28.80;18.10;;;;;;;3.84;83.28;100583.60;231185;1192;140184;-73
2021/11/23 15:15:21;;;;;;;34.50;20.60;;;;;;;3.91;83.25;100582.20;231120;1191;140674;-72
2021/11/23 15:20:28;;;;;;;31.20;19.10;;;;;;;3.91;83.38;100581.54;230057;1191;140296;-73
2021/11/23 15:25:34;;;;;;;33.70;19.80;;;;;;;3.93;83.17;100586.25;230120;1191;139189;-77
2021/11/23 15:30:44;;;;;;;36.20;21.10;;;;;;;3.93;83.16;100587.34;229575;1192;140233;-72
2021/11/23 15:35:49;;;;;;;31.20;20.90;;;;;;;3.95;83.41;100595.81;230397;1190;140440;-76
2021/11/23 15:40:59;;;;;;;34.50;21.70;;;;;;;3.95;83.40;100597.29;230087;1191;140502;-68
2021/11/23 15:46:03;;;;;;;30.20;19.80;;;;;;;3.98;83.39;100592.70;229987;1190;140482;-71
2021/11/23 15:51:28;;;;;;;33.20;20.90;;;;;;;4.03;83.25;100600.66;229785;1190;139667;-68
2021/11/23 15:56:36;;;;;;;32.50;20.50;;;;;;;3.99;83.20;100604.61;229921;1191;141467;-72
2021/11/23 16:01:42;;;;;;;32.00;19.50;;;;;;;3.98;83.31;100607.71;229386;1192;140939;-73
2021/11/23 16:06:50;;;;;;;30.50;18.40;;;;;;;4.02;83.32;100610.59;229058;1191;140365;-73
2021/11/23 16:11:55;;;;;;;32.60;19.30;;;;;;;4.01;83.77;100613.66;229475;1192;139225;-76
2021/11/23 16:17:05;;;;;;;24.30;14.20;;;;;;;4.02;83.67;100613.73;229428;1192;140920;-67
2021/11/23 16:22:11;;;;;;;37.30;20.70;;;;;;;4.04;83.49;100617.21;229621;1192;140072;-70
2021/11/23 16:27:38;;;;;;;26.00;16.90;;;;;;;4.07;83.81;100620.21;229761;1191;141771;-70
2021/11/23 16:32:50;;;;;;;31.40;19.00;;;;;;;4.03;83.74;100623.35;228827;1192;145045;-69
2021/11/23 16:37:54;;;;;;;28.90;18.30;;;;;;;4.05;83.82;100620.77;229467;1190;141182;-72
2021/11/23 16:43:06;;;;;;;27.90;18.00;;;;;;;4.10;84.04;100628.41;229984;1192;140592;-72
2021/11/23 16:48:11;;;;;;;35.30;18.10;;;;;;;4.09;83.88;100624.78;229253;1191;138781;-70
2021/11/23 16:53:27;;;;;;;31.90;19.80;;;;;;;4.15;83.77;100621.88;230108;1191;140768;-73
2021/11/23 16:58:34;;;;;;;26.40;17.60;;;;;;;4.20;83.98;100629.67;230752;1192;139296;-73
2021/11/23 17:03:39;;;;;;;35.70;20.20;;;;;;;4.20;83.92;100629.17;230172;1190;141454;-72
2021/11/23 17:09:26;;;;;;;24.60;16.90;;;;;;;4.24;83.85;100635.60;229103;1192;140159;-74
2021/11/23 17:14:29;;;;;;;28.20;17.90;;;;;;;4.32;84.12;100637.15;230916;1190;140218;-71
2021/11/23 17:19:54;;;;;;;18.20;11.50;;;;;;;4.30;83.73;100637.20;230864;1190;140519;-76
2021/11/23 17:24:59;;;;;;;25.20;17.00;;;;;;;4.24;83.81;100635.89;230113;1191;140425;-69
2021/11/23 17:30:36;;;;;;;27.20;16.70;;;;;;;4.28;83.89;100632.33;231145;1190;139699;-70
2021/11/23 17:35:41;;;;;;;23.30;14.80;;;;;;;4.34;83.89;100636.52;231005;1191;140996;-73
2021/11/23 17:40:49;;;;;;;18.50;13.70;;;;;;;4.35;83.87;100640.18;230310;1190;140005;-75
2021/11/23 17:45:58;;;;;;;26.60;16.50;;;;;;;4.37;84.03;100647.39;230144;1190;139860;-68
2021/11/23 17:51:03;;;;;;;23.70;15.80;;;;;;;4.44;84.02;100645.16;229425;1190;143824;-72
2021/11/23 17:56:09;;;;;;;25.50;15.10;;;;;;;4.42;83.95;100654.70;230138;1190;139437;-72
2021/11/23 18:01:23;;;;;;;25.20;16.10;;;;;;;4.38;83.66;100651.39;229089;1190;141176;-71
2021/11/23 18:06:30;;;;;;;25.60;17.70;;;;;;;4.38;83.84;100652.25;229437;1190;141098;-69
2021/11/23 18:11:38;;;;;;;20.80;15.10;;;;;;;4.39;84.04;100653.89;229470;1191;140542;-70
2021/11/23 18:16:44;;;;;;;26.00;15.60;;;;;;;4.41;84.09;100653.52;229447;1190;139297;-72
2021/11/23 18:21:48;;;;;;;23.80;17.10;;;;;;;4.44;84.23;100652.18;229658;1190;139719;-73
2021/11/23 18:26:59;;;;;;;23.70;16.10;;;;;;;4.44;84.34;100650.57;229650;1190;139450;-72
2021/11/23 18:32:11;;;;;;;26.70;16.60;;;;;;;4.41;84.26;100652.86;229711;1190;139787;-71
2021/11/23 18:37:24;;;;;;;28.20;18.20;;;;;;;4.44;84.06;100654.95;229042;1190;139963;-72
2021/11/23 18:42:42;;;;;;;;;;;;;;;;;;;;;
2021/11/23 18:47:47;;;;;;;29.70;17.50;;;;;;;4.47;84.21;100648.81;228801;1193;139963;-75
2021/11/23 18:52:52;;;;;;;33.30;20.50;;;;;;;4.47;84.48;100655.02;230672;1190;139640;-75
2021/11/23 18:57:58;;;;;;;37.80;21.60;;;;;;;4.51;84.36;100655.09;230124;1190;142438;-73
2021/11/23 19:03:04;;;;;;;39.40;21.70;;;;;;;4.49;84.16;100657.02;228996;1190;140550;-73
2021/11/23 19:08:08;;;;;;;36.10;21.70;;;;;;;4.44;84.07;100654.46;230114;1190;140737;-72
2021/11/23 19:13:14;;;;;;;33.40;18.20;;;;;;;4.43;84.37;100655.27;229243;1190;141099;-74
2021/11/23 19:18:31;;;;;;;36.40;21.90;;;;;;;4.48;84.45;100652.73;230267;1190;140757;-70
2021/11/23 19:23:39;;;;;;;34.40;18.70;;;;;;;4.54;84.69;100653.53;231136;1190;139845;-74
2021/11/23 19:28:44;;;;;;;34.80;19.90;;;;;;;4.57;84.58;100652.78;231040;1191;141359;-69
2021/11/23 19:33:50;;;;;;;36.30;21.90;;;;;;;4.63;84.43;100647.29;230231;1192;140937;-75
2021/11/23 19:38:56;;;;;;;;;;;;;;;4.62;84.11;100648.19;229924;1192;140672;-71
2021/11/23 19:44:05;;;;;;;36.40;19.60;;;;;;;4.54;84.41;100647.98;230428;1191;126330;-70
2021/11/23 19:49:12;;;;;;;33.00;22.30;;;;;;;4.55;84.33;100655.51;229977;1192;140591;-71
2021/11/23 19:54:17;;;;;;;37.00;22.10;;;;;;;4.56;84.40;100660.89;229677;1192;140581;-69
2021/11/23 19:59:23;;;;;;;41.40;24.50;;;;;;;4.55;84.41;100666.41;229255;1192;141104;-71
2021/11/23 20:04:31;;;;;;;38.60;20.90;;;;;;;4.57;84.18;100662.79;230177;1192;141312;-72
2021/11/23 20:09:37;;;;;;;38.60;23.00;;;;;;;4.61;84.47;100661.45;230192;1190;140388;-74
2021/11/23 20:14:42;;;;;;;37.70;20.30;;;;;;;4.59;84.35;100665.00;229509;1192;139279;-74
2021/11/23 20:19:52;;;;;;;43.10;21.70;;;;;;;4.57;84.18;100673.63;229960;1192;142714;-75
2021/11/23 20:25:00;;;;;;;40.80;23.10;;;;;;;4.57;84.51;100679.59;229739;1191;139551;-71
2021/11/23 20:30:09;;;;;;;41.40;21.70;;;;;;;4.51;84.60;100682.13;229137;1192;139160;-72
2021/11/23 20:35:17;;;;;;;38.80;19.20;;;;;;;4.50;84.61;100681.57;230283;1190;139265;-73
2021/11/23 20:40:33;;;;;;;36.90;23.40;;;;;;;4.55;84.43;100680.49;229999;1190;140711;-75
2021/11/23 20:45:44;;;;;;;33.90;22.00;;;;;;;4.53;84.34;100683.20;229423;1190;141165;-74
2021/11/23 20:50:48;;;;;;;42.30;20.80;;;;;;;4.52;84.83;100688.39;229561;1190;139176;-70
2021/11/23 20:56:17;;;;;;;43.90;25.00;;;;;;;4.58;84.71;100686.11;229604;1190;139563;-68
2021/11/23 21:01:24;;;;;;;46.20;24.30;;;;;;;4.61;84.80;100687.83;231153;1190;141234;-70
2021/11/23 21:06:29;;;;;;;46.70;27.20;;;;;;;4.58;84.70;100689.85;230214;1192;139519;-69
2021/11/23 21:12:15;;;;;;;41.30;21.40;;;;;;;4.62;84.79;100691.66;230752;1190;140786;-72
2021/11/23 21:17:25;;;;;;;37.30;22.80;;;;;;;4.65;84.61;100696.36;231175;1190;140616;-74
2021/11/23 21:22:30;;;;;;;39.60;23.30;;;;;;;4.66;84.65;100697.84;230895;1190;140086;-72
2021/11/23 21:27:34;;;;;;;40.90;22.10;;;;;;;4.67;84.48;100698.73;230823;1191;140176;-73
2021/11/23 21:32:43;;;;;;;40.60;22.70;;;;;;;4.75;84.05;100696.19;230006;1192;140566;-68
2021/11/23 21:37:51;;;;;;;38.80;24.30;;;;;;;4.73;84.13;100699.70;230375;1192;162425;-70
2021/11/23 21:48:09;;;;;;;38.90;21.40;;;;;;;4.69;84.56;100698.44;229938;1191;140642;-74
2021/11/23 21:53:17;;;;;;;44.90;25.20;;;;;;;4.69;84.52;100698.63;229429;1192;139742;-73
2021/11/23 21:58:22;;;;;;;82.80;39.70;;;;;;;4.68;84.51;100701.41;230186;1191;139122;-73
2021/11/23 22:03:29;;;;;;;46.00;28.20;;;;;;;4.67;84.43;100693.72;229957;1191;140965;-69
2021/11/23 22:08:34;;;;;;;48.40;29.60;;;;;;;4.64;84.62;100686.96;229173;1190;139763;-69
2021/11/23 22:13:41;;;;;;;49.40;27.60;;;;;;;4.66;84.74;100683.62;229273;1190;141449;-72
2021/11/23 22:18:48;;;;;;;53.80;29.30;;;;;;;4.70;84.80;100687.33;229719;1190;139320;-71
2021/11/23 22:24:52;;;;;;;;;;;;;;;;;;;;;
2021/11/23 22:30:07;;;;;;;48.30;26.20;;;;;;;4.69;84.54;100680.08;229502;1192;140076;-72
2021/11/23 22:35:27;;;;;;;48.60;27.70;;;;;;;4.71;84.41;100682.02;230544;1191;139761;-75
2021/11/23 22:40:32;;;;;;;37.70;24.20;;;;;;;4.67;84.46;100682.23;229857;1192;140364;-69
2021/11/23 22:45:37;;;;;;;41.40;24.20;;;;;;;4.64;84.53;100676.06;230110;1192;140178;-72
2021/11/23 22:50:42;;;;;;;52.00;24.80;;;;;;;4.67;84.69;100675.52;229832;1192;140233;-73
2021/11/23 22:55:47;;;;;;;41.00;23.00;;;;;;;4.70;84.82;100672.64;230155;1192;139424;-72
2021/11/23 23:00:52;;;;;;;32.10;20.00;;;;;;;4.68;84.53;100673.38;230525;1191;209013;-74
2021/11/23 23:06:07;;;;;;;44.70;24.10;;;;;;;4.68;84.52;100668.95;230568;1191;231052;-73
2021/11/23 23:11:12;;;;;;;42.10;21.20;;;;;;;4.71;84.74;100668.58;230885;1191;139487;-72
2021/11/23 23:16:16;;;;;;;41.00;21.10;;;;;;;4.73;84.65;100665.73;231321;1190;141242;-72
2021/11/23 23:21:22;;;;;;;42.10;23.40;;;;;;;4.77;84.46;100663.56;230682;1191;140378;-73
2021/11/23 23:26:26;;;;;;;41.80;25.60;;;;;;;4.81;84.44;100663.15;231140;1192;139900;-70
2021/11/23 23:31:40;;;;;;;47.60;24.60;;;;;;;4.80;84.81;100658.13;229312;1192;139471;-71
2021/11/23 23:36:45;;;;;;;42.10;22.20;;;;;;;4.82;84.63;100650.59;230413;1192;140097;-72
2021/11/23 23:41:51;;;;;;;51.80;28.00;;;;;;;4.81;84.36;100643.17;230182;1192;140391;-72
2021/11/23 23:46:55;;;;;;;50.60;27.20;;;;;;;4.77;84.58;100648.70;229431;1192;139187;-72